sensor_id;sensor_type;location;lat;lon;timestamp;P1;durP1;ratioP1;P2;durP2;ratioP2
70132;SDS011;57495;49.922;7.966;2023-07-13T00:00:05;3.20;;;1.13;;
70132;SDS011;57495;49.922;7.966;2023-07-13T00:02:09;4.28;;;1.05;;
70132;SDS011;57495;49.922;7.966;2023-07-13T00:04:11;3.63;;;1.08;;
70132;SDS011;57495;49.922;7.966;2023-07-13T00:06:13;4.72;;;1.30;;
70132;SDS011;57495;49.922;7.966;2023-07-13T00:08:15;4.33;;;1.20;;
70132;SDS011;57495;49.922;7.966;2023-07-13T00:10:16;4.95;;;1.35;;
70132;SDS011;57495;49.922;7.966;2023-07-13T00:12:22;3.83;;;1.20;;
70132;SDS011;57495;49.922;7.966;2023-07-13T00:14:26;4.23;;;1.30;;
70132;SDS011;57495;49.922;7.966;2023-07-13T00:16:29;3.75;;;1.42;;
70132;SDS011;57495;49.922;7.966;2023-07-13T00:18:30;4.07;;;1.10;;
70132;SDS011;57495;49.922;7.966;2023-07-13T00:20:32;3.67;;;0.80;;
70132;SDS011;57495;49.922;7.966;2023-07-13T00:22:33;3.80;;;1.10;;
70132;SDS011;57495;49.922;7.966;2023-07-13T00:24:36;5.73;;;1.43;;
70132;SDS011;57495;49.922;7.966;2023-07-13T00:26:41;5.72;;;1.73;;
70132;SDS011;57495;49.922;7.966;2023-07-13T00:28:44;4.40;;;1.35;;
70132;SDS011;57495;49.922;7.966;2023-07-13T00:30:45;3.87;;;1.30;;
70132;SDS011;57495;49.922;7.966;2023-07-13T00:32:46;6.13;;;1.13;;
70132;SDS011;57495;49.922;7.966;2023-07-13T00:34:48;3.63;;;1.20;;
70132;SDS011;57495;49.922;7.966;2023-07-13T00:36:48;4.23;;;1.43;;
70132;SDS011;57495;49.922;7.966;2023-07-13T00:38:50;5.20;;;1.13;;
70132;SDS011;57495;49.922;7.966;2023-07-13T00:40:52;3.65;;;1.40;;
70132;SDS011;57495;49.922;7.966;2023-07-13T00:42:56;3.77;;;1.40;;
70132;SDS011;57495;49.922;7.966;2023-07-13T00:45:05;4.30;;;1.20;;
70132;SDS011;57495;49.922;7.966;2023-07-13T00:47:28;4.88;;;1.15;;
70132;SDS011;57495;49.922;7.966;2023-07-13T00:49:30;4.63;;;1.20;;
70132;SDS011;57495;49.922;7.966;2023-07-13T00:51:34;3.88;;;1.35;;
70132;SDS011;57495;49.922;7.966;2023-07-13T00:53:40;4.70;;;1.63;;
70132;SDS011;57495;49.922;7.966;2023-07-13T00:55:40;3.63;;;1.48;;
70132;SDS011;57495;49.922;7.966;2023-07-13T00:57:43;8.45;;;1.33;;
70132;SDS011;57495;49.922;7.966;2023-07-13T00:59:46;3.63;;;1.23;;
70132;SDS011;57495;49.922;7.966;2023-07-13T01:01:50;4.35;;;1.50;;
70132;SDS011;57495;49.922;7.966;2023-07-13T01:03:51;4.78;;;1.35;;
70132;SDS011;57495;49.922;7.966;2023-07-13T01:05:54;4.45;;;1.50;;
70132;SDS011;57495;49.922;7.966;2023-07-13T01:07:55;5.15;;;1.20;;
70132;SDS011;57495;49.922;7.966;2023-07-13T01:09:57;3.90;;;1.40;;
70132;SDS011;57495;49.922;7.966;2023-07-13T01:11:58;3.55;;;1.20;;
70132;SDS011;57495;49.922;7.966;2023-07-13T01:14:01;3.67;;;1.25;;
70132;SDS011;57495;49.922;7.966;2023-07-13T01:16:04;4.80;;;1.23;;
70132;SDS011;57495;49.922;7.966;2023-07-13T01:18:15;4.53;;;1.10;;
70132;SDS011;57495;49.922;7.966;2023-07-13T01:20:18;4.63;;;0.97;;
70132;SDS011;57495;49.922;7.966;2023-07-13T01:22:21;3.42;;;1.20;;
70132;SDS011;57495;49.922;7.966;2023-07-13T01:24:26;5.55;;;0.95;;
70132;SDS011;57495;49.922;7.966;2023-07-13T01:26:27;5.13;;;1.40;;
70132;SDS011;57495;49.922;7.966;2023-07-13T01:28:29;4.63;;;1.13;;
70132;SDS011;57495;49.922;7.966;2023-07-13T01:30:31;4.60;;;1.53;;
70132;SDS011;57495;49.922;7.966;2023-07-13T01:32:31;4.63;;;1.15;;
70132;SDS011;57495;49.922;7.966;2023-07-13T01:34:34;2.70;;;0.80;;
70132;SDS011;57495;49.922;7.966;2023-07-13T01:36:35;4.97;;;1.60;;
70132;SDS011;57495;49.922;7.966;2023-07-13T01:38:38;4.17;;;1.30;;
70132;SDS011;57495;49.922;7.966;2023-07-13T01:40:38;3.63;;;1.30;;
70132;SDS011;57495;49.922;7.966;2023-07-13T01:42:40;5.47;;;1.30;;
70132;SDS011;57495;49.922;7.966;2023-07-13T01:44:41;5.03;;;1.00;;
70132;SDS011;57495;49.922;7.966;2023-07-13T01:46:43;4.03;;;1.27;;
70132;SDS011;57495;49.922;7.966;2023-07-13T01:48:44;3.20;;;1.17;;
70132;SDS011;57495;49.922;7.966;2023-07-13T01:50:47;4.00;;;1.48;;
70132;SDS011;57495;49.922;7.966;2023-07-13T01:52:48;4.15;;;1.10;;
70132;SDS011;57495;49.922;7.966;2023-07-13T01:54:51;4.65;;;1.55;;
70132;SDS011;57495;49.922;7.966;2023-07-13T01:56:52;4.05;;;1.45;;
70132;SDS011;57495;49.922;7.966;2023-07-13T01:58:54;4.23;;;1.47;;
70132;SDS011;57495;49.922;7.966;2023-07-13T02:00:55;5.57;;;1.23;;
70132;SDS011;57495;49.922;7.966;2023-07-13T02:02:56;4.35;;;1.20;;
70132;SDS011;57495;49.922;7.966;2023-07-13T02:04:58;3.38;;;1.30;;
70132;SDS011;57495;49.922;7.966;2023-07-13T02:06:59;5.18;;;1.20;;
70132;SDS011;57495;49.922;7.966;2023-07-13T02:09:01;6.23;;;1.70;;
70132;SDS011;57495;49.922;7.966;2023-07-13T02:11:03;5.05;;;1.35;;
70132;SDS011;57495;49.922;7.966;2023-07-13T02:13:05;7.82;;;2.10;;
70132;SDS011;57495;49.922;7.966;2023-07-13T02:15:08;6.37;;;1.87;;
70132;SDS011;57495;49.922;7.966;2023-07-13T02:17:10;4.35;;;1.70;;
70132;SDS011;57495;49.922;7.966;2023-07-13T02:19:12;5.35;;;2.03;;
70132;SDS011;57495;49.922;7.966;2023-07-13T02:21:13;6.88;;;2.00;;
70132;SDS011;57495;49.922;7.966;2023-07-13T02:23:15;6.53;;;2.10;;
70132;SDS011;57495;49.922;7.966;2023-07-13T02:25:15;4.13;;;1.63;;
70132;SDS011;57495;49.922;7.966;2023-07-13T02:27:18;5.40;;;1.98;;
70132;SDS011;57495;49.922;7.966;2023-07-13T02:29:20;5.60;;;1.60;;
70132;SDS011;57495;49.922;7.966;2023-07-13T02:31:21;6.38;;;1.63;;
70132;SDS011;57495;49.922;7.966;2023-07-13T02:33:23;3.78;;;1.23;;
70132;SDS011;57495;49.922;7.966;2023-07-13T02:35:24;4.13;;;1.40;;
70132;SDS011;57495;49.922;7.966;2023-07-13T02:37:26;4.45;;;1.42;;
70132;SDS011;57495;49.922;7.966;2023-07-13T02:39:27;4.00;;;1.73;;
70132;SDS011;57495;49.922;7.966;2023-07-13T02:41:28;3.47;;;1.25;;
70132;SDS011;57495;49.922;7.966;2023-07-13T02:43:31;4.72;;;1.80;;
70132;SDS011;57495;49.922;7.966;2023-07-13T02:45:32;5.50;;;1.73;;
70132;SDS011;57495;49.922;7.966;2023-07-13T02:47:35;4.45;;;1.45;;
70132;SDS011;57495;49.922;7.966;2023-07-13T02:49:36;5.05;;;1.70;;
70132;SDS011;57495;49.922;7.966;2023-07-13T02:51:37;4.38;;;1.52;;
70132;SDS011;57495;49.922;7.966;2023-07-13T02:53:39;4.15;;;1.80;;
70132;SDS011;57495;49.922;7.966;2023-07-13T02:55:40;5.37;;;2.10;;
70132;SDS011;57495;49.922;7.966;2023-07-13T02:57:40;3.63;;;1.70;;
70132;SDS011;57495;49.922;7.966;2023-07-13T02:59:43;4.40;;;1.83;;
70132;SDS011;57495;49.922;7.966;2023-07-13T03:01:44;4.13;;;1.30;;
70132;SDS011;57495;49.922;7.966;2023-07-13T03:03:45;6.88;;;1.63;;
70132;SDS011;57495;49.922;7.966;2023-07-13T03:05:46;4.90;;;1.43;;
70132;SDS011;57495;49.922;7.966;2023-07-13T03:07:50;5.75;;;1.77;;
70132;SDS011;57495;49.922;7.966;2023-07-13T03:09:53;5.65;;;1.70;;
70132;SDS011;57495;49.922;7.966;2023-07-13T03:11:55;3.72;;;1.40;;
70132;SDS011;57495;49.922;7.966;2023-07-13T03:13:57;3.30;;;1.20;;
70132;SDS011;57495;49.922;7.966;2023-07-13T03:16:00;4.97;;;1.70;;
70132;SDS011;57495;49.922;7.966;2023-07-13T03:18:01;4.07;;;1.60;;
70132;SDS011;57495;49.922;7.966;2023-07-13T03:20:03;4.82;;;1.48;;
70132;SDS011;57495;49.922;7.966;2023-07-13T03:22:07;8.38;;;2.42;;
70132;SDS011;57495;49.922;7.966;2023-07-13T03:24:08;4.93;;;1.90;;
70132;SDS011;57495;49.922;7.966;2023-07-13T03:26:10;4.70;;;1.93;;
70132;SDS011;57495;49.922;7.966;2023-07-13T03:28:17;6.53;;;1.80;;
70132;SDS011;57495;49.922;7.966;2023-07-13T03:30:18;4.57;;;1.75;;
70132;SDS011;57495;49.922;7.966;2023-07-13T03:32:21;3.75;;;1.77;;
70132;SDS011;57495;49.922;7.966;2023-07-13T03:34:23;5.47;;;1.80;;
70132;SDS011;57495;49.922;7.966;2023-07-13T03:36:25;5.60;;;1.70;;
70132;SDS011;57495;49.922;7.966;2023-07-13T03:38:28;5.72;;;1.95;;
70132;SDS011;57495;49.922;7.966;2023-07-13T03:40:29;6.53;;;1.88;;
70132;SDS011;57495;49.922;7.966;2023-07-13T03:42:30;6.53;;;2.20;;
70132;SDS011;57495;49.922;7.966;2023-07-13T03:44:31;5.90;;;1.80;;
70132;SDS011;57495;49.922;7.966;2023-07-13T03:46:33;4.80;;;1.50;;
70132;SDS011;57495;49.922;7.966;2023-07-13T03:48:35;4.07;;;2.10;;
70132;SDS011;57495;49.922;7.966;2023-07-13T03:50:36;6.50;;;1.95;;
70132;SDS011;57495;49.922;7.966;2023-07-13T03:52:38;5.72;;;1.80;;
70132;SDS011;57495;49.922;7.966;2023-07-13T03:54:39;4.82;;;2.10;;
70132;SDS011;57495;49.922;7.966;2023-07-13T03:56:41;5.35;;;1.88;;
70132;SDS011;57495;49.922;7.966;2023-07-13T03:58:43;4.97;;;1.60;;
70132;SDS011;57495;49.922;7.966;2023-07-13T04:00:44;4.80;;;1.40;;
70132;SDS011;57495;49.922;7.966;2023-07-13T04:02:45;5.22;;;1.83;;
70132;SDS011;57495;49.922;7.966;2023-07-13T04:04:50;4.25;;;1.73;;
70132;SDS011;57495;49.922;7.966;2023-07-13T04:06:53;4.60;;;1.60;;
70132;SDS011;57495;49.922;7.966;2023-07-13T04:08:56;6.23;;;1.50;;
70132;SDS011;57495;49.922;7.966;2023-07-13T04:10:58;5.80;;;1.63;;
70132;SDS011;57495;49.922;7.966;2023-07-13T04:13:00;6.28;;;1.60;;
70132;SDS011;57495;49.922;7.966;2023-07-13T04:15:00;4.83;;;1.47;;
70132;SDS011;57495;49.922;7.966;2023-07-13T04:17:02;7.18;;;1.73;;
70132;SDS011;57495;49.922;7.966;2023-07-13T04:19:04;3.58;;;1.60;;
70132;SDS011;57495;49.922;7.966;2023-07-13T04:21:06;7.68;;;1.63;;
70132;SDS011;57495;49.922;7.966;2023-07-13T04:23:08;4.23;;;1.30;;
70132;SDS011;57495;49.922;7.966;2023-07-13T04:25:10;4.43;;;1.30;;
70132;SDS011;57495;49.922;7.966;2023-07-13T04:27:11;4.53;;;1.25;;
70132;SDS011;57495;49.922;7.966;2023-07-13T04:29:13;5.35;;;1.58;;
70132;SDS011;57495;49.922;7.966;2023-07-13T04:31:15;6.28;;;1.50;;
70132;SDS011;57495;49.922;7.966;2023-07-13T04:33:16;6.47;;;1.40;;
70132;SDS011;57495;49.922;7.966;2023-07-13T04:35:18;4.68;;;1.80;;
70132;SDS011;57495;49.922;7.966;2023-07-13T04:37:21;5.90;;;1.90;;
70132;SDS011;57495;49.922;7.966;2023-07-13T04:39:23;5.30;;;1.50;;
70132;SDS011;57495;49.922;7.966;2023-07-13T04:41:24;3.65;;;1.30;;
70132;SDS011;57495;49.922;7.966;2023-07-13T04:43:26;5.73;;;1.73;;
70132;SDS011;57495;49.922;7.966;2023-07-13T04:45:28;5.25;;;1.33;;
70132;SDS011;57495;49.922;7.966;2023-07-13T04:47:30;5.53;;;1.27;;
70132;SDS011;57495;49.922;7.966;2023-07-13T04:49:31;5.03;;;1.57;;
70132;SDS011;57495;49.922;7.966;2023-07-13T04:51:32;4.93;;;1.40;;
70132;SDS011;57495;49.922;7.966;2023-07-13T04:53:35;5.40;;;1.60;;
70132;SDS011;57495;49.922;7.966;2023-07-13T04:55:37;5.32;;;1.45;;
70132;SDS011;57495;49.922;7.966;2023-07-13T04:57:38;3.67;;;0.90;;
70132;SDS011;57495;49.922;7.966;2023-07-13T04:59:40;4.20;;;1.38;;
70132;SDS011;57495;49.922;7.966;2023-07-13T05:01:41;6.55;;;1.60;;
70132;SDS011;57495;49.922;7.966;2023-07-13T05:03:43;5.35;;;1.50;;
70132;SDS011;57495;49.922;7.966;2023-07-13T05:05:53;3.90;;;1.30;;
70132;SDS011;57495;49.922;7.966;2023-07-13T05:07:56;5.37;;;1.60;;
70132;SDS011;57495;49.922;7.966;2023-07-13T05:09:58;6.10;;;2.17;;
70132;SDS011;57495;49.922;7.966;2023-07-13T05:12:00;4.68;;;1.83;;
70132;SDS011;57495;49.922;7.966;2023-07-13T05:14:01;4.50;;;1.75;;
70132;SDS011;57495;49.922;7.966;2023-07-13T05:16:04;7.10;;;1.98;;
70132;SDS011;57495;49.922;7.966;2023-07-13T05:18:07;5.07;;;2.00;;
70132;SDS011;57495;49.922;7.966;2023-07-13T05:20:08;5.82;;;1.83;;
70132;SDS011;57495;49.922;7.966;2023-07-13T05:22:10;3.70;;;1.50;;
70132;SDS011;57495;49.922;7.966;2023-07-13T05:24:12;4.97;;;1.60;;
70132;SDS011;57495;49.922;7.966;2023-07-13T05:26:14;4.80;;;2.00;;
70132;SDS011;57495;49.922;7.966;2023-07-13T05:28:16;6.13;;;2.22;;
70132;SDS011;57495;49.922;7.966;2023-07-13T05:30:16;5.63;;;2.60;;
70132;SDS011;57495;49.922;7.966;2023-07-13T05:32:18;5.75;;;1.83;;
70132;SDS011;57495;49.922;7.966;2023-07-13T05:34:19;3.90;;;1.70;;
70132;SDS011;57495;49.922;7.966;2023-07-13T05:36:20;5.43;;;1.57;;
70132;SDS011;57495;49.922;7.966;2023-07-13T05:38:21;6.38;;;1.90;;
70132;SDS011;57495;49.922;7.966;2023-07-13T05:40:23;5.57;;;1.95;;
70132;SDS011;57495;49.922;7.966;2023-07-13T05:42:25;6.27;;;2.10;;
70132;SDS011;57495;49.922;7.966;2023-07-13T05:44:27;5.13;;;1.95;;
70132;SDS011;57495;49.922;7.966;2023-07-13T05:46:28;5.35;;;2.08;;
70132;SDS011;57495;49.922;7.966;2023-07-13T05:48:28;4.20;;;1.70;;
70132;SDS011;57495;49.922;7.966;2023-07-13T05:50:30;6.07;;;1.55;;
70132;SDS011;57495;49.922;7.966;2023-07-13T05:52:31;4.72;;;1.63;;
70132;SDS011;57495;49.922;7.966;2023-07-13T05:54:33;3.80;;;1.52;;
70132;SDS011;57495;49.922;7.966;2023-07-13T05:56:34;6.07;;;1.97;;
70132;SDS011;57495;49.922;7.966;2023-07-13T05:58:37;5.47;;;1.90;;
70132;SDS011;57495;49.922;7.966;2023-07-13T06:00:38;4.15;;;1.40;;
70132;SDS011;57495;49.922;7.966;2023-07-13T06:02:40;6.18;;;1.60;;
70132;SDS011;57495;49.922;7.966;2023-07-13T06:04:42;4.82;;;1.23;;
70132;SDS011;57495;49.922;7.966;2023-07-13T06:06:43;5.23;;;1.20;;
70132;SDS011;57495;49.922;7.966;2023-07-13T06:08:44;4.00;;;1.20;;
70132;SDS011;57495;49.922;7.966;2023-07-13T06:10:46;4.72;;;1.10;;
70132;SDS011;57495;49.922;7.966;2023-07-13T06:12:47;4.53;;;1.10;;
70132;SDS011;57495;49.922;7.966;2023-07-13T06:14:50;4.03;;;0.90;;
70132;SDS011;57495;49.922;7.966;2023-07-13T06:16:51;4.23;;;1.20;;
70132;SDS011;57495;49.922;7.966;2023-07-13T06:18:53;6.00;;;1.42;;
70132;SDS011;57495;49.922;7.966;2023-07-13T06:20:54;4.72;;;1.42;;
70132;SDS011;57495;49.922;7.966;2023-07-13T06:22:55;3.92;;;1.10;;
70132;SDS011;57495;49.922;7.966;2023-07-13T06:24:57;5.05;;;1.20;;
70132;SDS011;57495;49.922;7.966;2023-07-13T06:26:58;5.30;;;1.13;;
70132;SDS011;57495;49.922;7.966;2023-07-13T06:28:59;4.22;;;0.88;;
70132;SDS011;57495;49.922;7.966;2023-07-13T06:31:04;3.38;;;0.80;;
70132;SDS011;57495;49.922;7.966;2023-07-13T06:33:06;4.35;;;0.90;;
70132;SDS011;57495;49.922;7.966;2023-07-13T06:35:08;6.68;;;0.93;;
70132;SDS011;57495;49.922;7.966;2023-07-13T06:37:12;6.43;;;0.70;;
70132;SDS011;57495;49.922;7.966;2023-07-13T06:39:13;3.15;;;0.70;;
70132;SDS011;57495;49.922;7.966;2023-07-13T06:41:15;3.88;;;0.52;;
70132;SDS011;57495;49.922;7.966;2023-07-13T06:43:16;3.45;;;0.60;;
70132;SDS011;57495;49.922;7.966;2023-07-13T06:45:18;4.32;;;0.63;;
70132;SDS011;57495;49.922;7.966;2023-07-13T06:47:20;5.17;;;0.70;;
70132;SDS011;57495;49.922;7.966;2023-07-13T06:49:22;7.43;;;0.80;;
70132;SDS011;57495;49.922;7.966;2023-07-13T06:51:23;3.15;;;0.50;;
70132;SDS011;57495;49.922;7.966;2023-07-13T06:53:25;3.53;;;0.60;;
70132;SDS011;57495;49.922;7.966;2023-07-13T06:55:27;3.85;;;0.70;;
70132;SDS011;57495;49.922;7.966;2023-07-13T06:57:28;3.67;;;0.40;;
70132;SDS011;57495;49.922;7.966;2023-07-13T06:59:30;2.75;;;0.50;;
70132;SDS011;57495;49.922;7.966;2023-07-13T07:01:31;3.55;;;0.60;;
70132;SDS011;57495;49.922;7.966;2023-07-13T07:03:34;3.83;;;0.50;;
70132;SDS011;57495;49.922;7.966;2023-07-13T07:05:35;4.85;;;0.55;;
70132;SDS011;57495;49.922;7.966;2023-07-13T07:07:37;5.73;;;0.70;;
70132;SDS011;57495;49.922;7.966;2023-07-13T07:09:38;3.38;;;0.75;;
70132;SDS011;57495;49.922;7.966;2023-07-13T07:11:40;3.60;;;0.50;;
70132;SDS011;57495;49.922;7.966;2023-07-13T07:13:42;7.55;;;0.73;;
70132;SDS011;57495;49.922;7.966;2023-07-13T07:15:43;6.15;;;0.70;;
70132;SDS011;57495;49.922;7.966;2023-07-13T07:17:44;4.43;;;0.63;;
70132;SDS011;57495;49.922;7.966;2023-07-13T07:19:48;3.50;;;0.73;;
70132;SDS011;57495;49.922;7.966;2023-07-13T07:21:49;2.60;;;0.60;;
70132;SDS011;57495;49.922;7.966;2023-07-13T07:23:51;2.90;;;0.63;;
70132;SDS011;57495;49.922;7.966;2023-07-13T07:25:53;3.00;;;0.50;;
70132;SDS011;57495;49.922;7.966;2023-07-13T07:27:54;12.00;;;0.80;;
70132;SDS011;57495;49.922;7.966;2023-07-13T07:29:55;5.95;;;0.68;;
70132;SDS011;57495;49.922;7.966;2023-07-13T07:31:58;3.05;;;0.70;;
70132;SDS011;57495;49.922;7.966;2023-07-13T07:34:00;2.88;;;0.70;;
70132;SDS011;57495;49.922;7.966;2023-07-13T07:36:04;2.30;;;0.35;;
70132;SDS011;57495;49.922;7.966;2023-07-13T07:38:06;4.20;;;0.60;;
70132;SDS011;57495;49.922;7.966;2023-07-13T07:40:09;4.07;;;0.70;;
70132;SDS011;57495;49.922;7.966;2023-07-13T07:42:11;6.80;;;0.73;;
70132;SDS011;57495;49.922;7.966;2023-07-13T07:44:12;3.85;;;0.60;;
70132;SDS011;57495;49.922;7.966;2023-07-13T07:46:14;3.72;;;0.70;;
70132;SDS011;57495;49.922;7.966;2023-07-13T07:48:15;3.00;;;0.50;;
70132;SDS011;57495;49.922;7.966;2023-07-13T07:50:16;2.55;;;0.40;;
70132;SDS011;57495;49.922;7.966;2023-07-13T07:52:21;3.50;;;1.05;;
70132;SDS011;57495;49.922;7.966;2023-07-13T07:54:22;2.97;;;0.60;;
70132;SDS011;57495;49.922;7.966;2023-07-13T07:56:24;3.45;;;0.60;;
70132;SDS011;57495;49.922;7.966;2023-07-13T07:58:25;4.30;;;0.70;;
70132;SDS011;57495;49.922;7.966;2023-07-13T08:00:26;2.83;;;0.52;;
70132;SDS011;57495;49.922;7.966;2023-07-13T08:02:30;4.60;;;0.70;;
70132;SDS011;57495;49.922;7.966;2023-07-13T08:04:31;3.45;;;0.30;;
70132;SDS011;57495;49.922;7.966;2023-07-13T08:06:33;3.92;;;0.40;;
70132;SDS011;57495;49.922;7.966;2023-07-13T08:08:36;5.73;;;0.80;;
70132;SDS011;57495;49.922;7.966;2023-07-13T08:10:37;2.72;;;0.50;;
70132;SDS011;57495;49.922;7.966;2023-07-13T08:12:39;2.55;;;0.77;;
70132;SDS011;57495;49.922;7.966;2023-07-13T08:14:41;4.25;;;0.90;;
70132;SDS011;57495;49.922;7.966;2023-07-13T08:16:42;4.55;;;0.80;;
70132;SDS011;57495;49.922;7.966;2023-07-13T08:18:43;3.60;;;0.60;;
70132;SDS011;57495;49.922;7.966;2023-07-13T08:20:44;3.22;;;0.50;;
70132;SDS011;57495;49.922;7.966;2023-07-13T08:22:46;3.03;;;0.60;;
70132;SDS011;57495;49.922;7.966;2023-07-13T08:24:47;3.90;;;0.73;;
70132;SDS011;57495;49.922;7.966;2023-07-13T08:26:55;4.50;;;0.43;;
70132;SDS011;57495;49.922;7.966;2023-07-13T08:28:56;22.55;;;2.22;;
70132;SDS011;57495;49.922;7.966;2023-07-13T08:31:00;9.90;;;0.95;;
70132;SDS011;57495;49.922;7.966;2023-07-13T08:33:02;5.63;;;0.90;;
70132;SDS011;57495;49.922;7.966;2023-07-13T08:35:03;2.83;;;0.50;;
70132;SDS011;57495;49.922;7.966;2023-07-13T08:37:06;3.43;;;0.57;;
70132;SDS011;57495;49.922;7.966;2023-07-13T08:39:07;3.72;;;0.60;;
70132;SDS011;57495;49.922;7.966;2023-07-13T08:41:12;2.55;;;0.43;;
70132;SDS011;57495;49.922;7.966;2023-07-13T08:43:16;3.63;;;0.40;;
70132;SDS011;57495;49.922;7.966;2023-07-13T08:45:22;2.42;;;0.90;;
70132;SDS011;57495;49.922;7.966;2023-07-13T08:47:27;3.37;;;0.63;;
70132;SDS011;57495;49.922;7.966;2023-07-13T08:49:31;2.78;;;0.85;;
70132;SDS011;57495;49.922;7.966;2023-07-13T08:51:36;3.40;;;0.70;;
70132;SDS011;57495;49.922;7.966;2023-07-13T08:53:43;2.97;;;0.80;;
70132;SDS011;57495;49.922;7.966;2023-07-13T08:55:48;3.53;;;0.50;;
70132;SDS011;57495;49.922;7.966;2023-07-13T08:58:03;3.87;;;0.70;;
70132;SDS011;57495;49.922;7.966;2023-07-13T09:00:11;3.67;;;0.50;;
70132;SDS011;57495;49.922;7.966;2023-07-13T09:02:17;2.13;;;0.40;;
70132;SDS011;57495;49.922;7.966;2023-07-13T09:04:27;3.30;;;0.63;;
70132;SDS011;57495;49.922;7.966;2023-07-13T09:06:33;3.72;;;0.45;;
70132;SDS011;57495;49.922;7.966;2023-07-13T09:08:46;4.33;;;0.80;;
70132;SDS011;57495;49.922;7.966;2023-07-13T09:10:58;3.05;;;0.50;;
70132;SDS011;57495;49.922;7.966;2023-07-13T09:13:10;3.15;;;0.60;;
70132;SDS011;57495;49.922;7.966;2023-07-13T09:15:23;4.78;;;0.50;;
70132;SDS011;57495;49.922;7.966;2023-07-13T09:17:32;11.77;;;0.98;;
70132;SDS011;57495;49.922;7.966;2023-07-13T09:19:37;5.60;;;0.60;;
70132;SDS011;57495;49.922;7.966;2023-07-13T09:21:41;4.55;;;0.90;;
70132;SDS011;57495;49.922;7.966;2023-07-13T09:23:45;15.00;;;1.35;;
70132;SDS011;57495;49.922;7.966;2023-07-13T09:25:47;3.42;;;0.52;;
70132;SDS011;57495;49.922;7.966;2023-07-13T09:27:55;2.88;;;0.50;;
70132;SDS011;57495;49.922;7.966;2023-07-13T09:30:04;6.30;;;0.57;;
70132;SDS011;57495;49.922;7.966;2023-07-13T09:32:22;9.70;;;1.58;;
70132;SDS011;57495;49.922;7.966;2023-07-13T09:34:27;3.33;;;0.40;;
70132;SDS011;57495;49.922;7.966;2023-07-13T09:36:31;3.67;;;0.80;;
70132;SDS011;57495;49.922;7.966;2023-07-13T09:38:34;3.22;;;0.60;;
70132;SDS011;57495;49.922;7.966;2023-07-13T09:40:39;4.73;;;0.80;;
70132;SDS011;57495;49.922;7.966;2023-07-13T09:42:45;3.28;;;0.77;;
70132;SDS011;57495;49.922;7.966;2023-07-13T09:44:52;3.25;;;0.55;;
70132;SDS011;57495;49.922;7.966;2023-07-13T09:46:56;3.60;;;0.50;;
70132;SDS011;57495;49.922;7.966;2023-07-13T09:48:58;2.72;;;0.60;;
70132;SDS011;57495;49.922;7.966;2023-07-13T09:51:01;5.03;;;0.60;;
70132;SDS011;57495;49.922;7.966;2023-07-13T09:53:14;2.20;;;0.50;;
70132;SDS011;57495;49.922;7.966;2023-07-13T09:55:22;3.65;;;0.70;;
70132;SDS011;57495;49.922;7.966;2023-07-13T09:57:26;3.83;;;1.00;;
70132;SDS011;57495;49.922;7.966;2023-07-13T09:59:29;2.97;;;0.95;;
70132;SDS011;57495;49.922;7.966;2023-07-13T10:01:34;3.60;;;0.83;;
70132;SDS011;57495;49.922;7.966;2023-07-13T10:03:37;3.97;;;1.15;;
70132;SDS011;57495;49.922;7.966;2023-07-13T10:05:40;7.63;;;0.80;;
70132;SDS011;57495;49.922;7.966;2023-07-13T10:07:43;3.13;;;0.88;;
70132;SDS011;57495;49.922;7.966;2023-07-13T10:09:45;3.20;;;0.70;;
70132;SDS011;57495;49.922;7.966;2023-07-13T10:11:47;5.33;;;0.70;;
70132;SDS011;57495;49.922;7.966;2023-07-13T10:13:52;2.83;;;0.63;;
70132;SDS011;57495;49.922;7.966;2023-07-13T10:15:55;4.90;;;0.75;;
70132;SDS011;57495;49.922;7.966;2023-07-13T10:17:58;5.75;;;1.08;;
70132;SDS011;57495;49.922;7.966;2023-07-13T10:20:03;3.95;;;0.88;;
70132;SDS011;57495;49.922;7.966;2023-07-13T10:22:14;3.97;;;0.87;;
70132;SDS011;57495;49.922;7.966;2023-07-13T10:24:24;3.90;;;0.60;;
70132;SDS011;57495;49.922;7.966;2023-07-13T10:26:27;4.85;;;0.73;;
70132;SDS011;57495;49.922;7.966;2023-07-13T10:28:31;3.28;;;0.55;;
70132;SDS011;57495;49.922;7.966;2023-07-13T10:30:38;4.18;;;0.70;;
70132;SDS011;57495;49.922;7.966;2023-07-13T10:32:44;3.30;;;1.00;;
70132;SDS011;57495;49.922;7.966;2023-07-13T10:35:05;3.85;;;1.00;;
70132;SDS011;57495;49.922;7.966;2023-07-13T10:37:13;3.00;;;0.90;;
70132;SDS011;57495;49.922;7.966;2023-07-13T10:39:22;2.60;;;0.60;;
70132;SDS011;57495;49.922;7.966;2023-07-13T10:41:27;3.28;;;0.70;;
70132;SDS011;57495;49.922;7.966;2023-07-13T10:43:32;2.73;;;0.60;;
70132;SDS011;57495;49.922;7.966;2023-07-13T10:45:37;4.65;;;0.95;;
70132;SDS011;57495;49.922;7.966;2023-07-13T10:47:38;3.25;;;0.70;;
70132;SDS011;57495;49.922;7.966;2023-07-13T10:49:40;3.42;;;0.82;;
70132;SDS011;57495;49.922;7.966;2023-07-13T10:51:44;4.88;;;0.98;;
70132;SDS011;57495;49.922;7.966;2023-07-13T10:53:46;4.17;;;0.60;;
70132;SDS011;57495;49.922;7.966;2023-07-13T10:55:55;3.63;;;0.63;;
70132;SDS011;57495;49.922;7.966;2023-07-13T10:58:01;2.60;;;0.50;;
70132;SDS011;57495;49.922;7.966;2023-07-13T11:00:14;4.15;;;0.73;;
70132;SDS011;57495;49.922;7.966;2023-07-13T11:02:21;3.95;;;0.73;;
70132;SDS011;57495;49.922;7.966;2023-07-13T11:04:26;2.20;;;0.63;;
70132;SDS011;57495;49.922;7.966;2023-07-13T11:06:33;3.75;;;0.63;;
70132;SDS011;57495;49.922;7.966;2023-07-13T11:08:52;3.30;;;0.85;;
70132;SDS011;57495;49.922;7.966;2023-07-13T11:10:55;4.85;;;1.05;;
70132;SDS011;57495;49.922;7.966;2023-07-13T11:12:57;3.67;;;0.90;;
70132;SDS011;57495;49.922;7.966;2023-07-13T11:15:03;3.60;;;0.90;;
70132;SDS011;57495;49.922;7.966;2023-07-13T11:17:24;4.07;;;1.58;;
70132;SDS011;57495;49.922;7.966;2023-07-13T11:19:39;3.58;;;1.20;;
70132;SDS011;57495;49.922;7.966;2023-07-13T11:22:01;3.20;;;0.70;;
70132;SDS011;57495;49.922;7.966;2023-07-13T11:24:13;3.55;;;0.55;;
70132;SDS011;57495;49.922;7.966;2023-07-13T11:28:42;3.05;;;0.55;;
70132;SDS011;57495;49.922;7.966;2023-07-13T11:30:45;3.30;;;0.70;;
70132;SDS011;57495;49.922;7.966;2023-07-13T11:32:50;4.10;;;0.70;;
70132;SDS011;57495;49.922;7.966;2023-07-13T11:35:02;3.00;;;0.60;;
70132;SDS011;57495;49.922;7.966;2023-07-13T11:37:08;2.97;;;0.57;;
70132;SDS011;57495;49.922;7.966;2023-07-13T11:39:17;3.05;;;0.75;;
70132;SDS011;57495;49.922;7.966;2023-07-13T11:41:21;2.83;;;0.65;;
70132;SDS011;57495;49.922;7.966;2023-07-13T11:43:25;2.95;;;0.90;;
70132;SDS011;57495;49.922;7.966;2023-07-13T11:45:26;3.50;;;0.60;;
70132;SDS011;57495;49.922;7.966;2023-07-13T11:47:28;4.88;;;0.88;;
70132;SDS011;57495;49.922;7.966;2023-07-13T11:49:31;3.55;;;0.50;;
70132;SDS011;57495;49.922;7.966;2023-07-13T11:51:33;2.40;;;0.53;;
70132;SDS011;57495;49.922;7.966;2023-07-13T11:53:38;4.43;;;0.60;;
70132;SDS011;57495;49.922;7.966;2023-07-13T11:55:42;4.00;;;0.70;;
70132;SDS011;57495;49.922;7.966;2023-07-13T11:57:45;6.32;;;0.90;;
70132;SDS011;57495;49.922;7.966;2023-07-13T11:59:50;2.90;;;0.60;;
70132;SDS011;57495;49.922;7.966;2023-07-13T12:01:54;3.20;;;0.70;;
70132;SDS011;57495;49.922;7.966;2023-07-13T12:03:56;3.45;;;0.70;;
70132;SDS011;57495;49.922;7.966;2023-07-13T12:05:59;3.50;;;0.63;;
70132;SDS011;57495;49.922;7.966;2023-07-13T12:08:08;3.30;;;0.55;;
70132;SDS011;57495;49.922;7.966;2023-07-13T12:10:15;2.40;;;0.50;;
70132;SDS011;57495;49.922;7.966;2023-07-13T12:12:21;3.63;;;0.60;;
70132;SDS011;57495;49.922;7.966;2023-07-13T12:14:24;3.42;;;0.73;;
70132;SDS011;57495;49.922;7.966;2023-07-13T12:16:28;3.97;;;0.70;;
70132;SDS011;57495;49.922;7.966;2023-07-13T12:18:32;3.75;;;0.60;;
70132;SDS011;57495;49.922;7.966;2023-07-13T12:20:35;4.53;;;0.75;;
70132;SDS011;57495;49.922;7.966;2023-07-13T12:22:39;2.83;;;0.70;;
70132;SDS011;57495;49.922;7.966;2023-07-13T12:24:40;2.90;;;0.52;;